This is the latest recevied weather packets stored in our database for station/object KE6JJJ-1. If no packets are shown the sender has not sent any weather packets the latest 10 day(s).
| Time | Temp. | Humidity | Pressure | Rain* | Wind** | Luminosity | Snow |
|---|---|---|---|---|---|---|---|
| 1777662312 | 15° C | 81% | 1015.8 hPa | 0 mm | - | 446 W/m² | - |
| 1777660503 | 14.44° C | 83% | 1015.8 hPa | 0 mm | - | 318 W/m² | - |
| 1777658712 | 13.89° C | 85% | 1015.8 hPa | 0 mm | - | 244 W/m² | - |
| 1777656903 | 13.33° C | 86% | 1015.9 hPa | 0 mm | - | 202 W/m² | - |
| 1777653303 | 12.78° C | 87% | 1015.7 hPa | 0 mm | - | 127 W/m² | - |
| 1777651504 | 12.78° C | 87% | 1015.6 hPa | 0 mm | - | 104 W/m² | - |
| 1777649703 | 12.78° C | 87% | 1015.3 hPa | 0 mm | - | 77 W/m² | - |
| 1777647903 | 12.78° C | 87% | 1015.1 hPa | 0 mm | - | 53 W/m² | - |
| 1777646103 | 12.22° C | 88% | 1014.9 hPa | 0 mm | - | 33 W/m² | - |
| 1777644303 | 12.22° C | 88% | 1014.6 hPa | 0 mm | - | 19 W/m² | - |
| 1777642503 | 12.22° C | 87% | 1014.3 hPa | 0 mm | - | 7 W/m² | - |
| 1777640703 | 12.22° C | 87% | 1014.1 hPa | 0 mm | - | 0 W/m² | - |
| 1777638904 | 12.22° C | 87% | 1014.1 hPa | 0 mm | - | 0 W/m² | - |
| 1777637103 | 12.78° C | 87% | 1014 hPa | 0 mm | - | 0 W/m² | - |
| 1777633504 | 12.78° C | 87% | 1014.2 hPa | 0 mm | - | 0 W/m² | - |
| 1777631711 | 12.78° C | 86% | 1014.2 hPa | 0 mm | - | 0 W/m² | - |
| 1777629904 | 12.78° C | 86% | 1014 hPa | 0 mm | - | 0 W/m² | - |
| 1777628103 | 12.78° C | 86% | 1014.1 hPa | 0 mm | - | 0 W/m² | - |
| 1777626303 | 12.78° C | 86% | 1014.3 hPa | 0 mm | - | 0 W/m² | - |
| 1777624503 | 12.78° C | 86% | 1014.7 hPa | 0 mm | - | 0 W/m² | - |
| 1777622704 | 12.78° C | 86% | 1014.8 hPa | 0 mm | - | 0 W/m² | - |
| 1777620904 | 12.78° C | 86% | 1014.8 hPa | 0 mm | - | 0 W/m² | - |
| 1777619103 | 12.78° C | 86% | 1014.8 hPa | 0 mm | - | 0 W/m² | - |
| 1777617303 | 12.78° C | 85% | 1014.5 hPa | 0 mm | - | 0 W/m² | - |
| 1777615504 | 12.78° C | 85% | 1014.5 hPa | 0 mm | - | 0 W/m² | - |
* Rain latest hour (hover to see other rain measurements)
** Current wind speed in m/s (hover to see current wind gust speed)